Time;durP1;ratioP1;P1;durP2;ratioP2;P2;SDS_P1;SDS_P2;PMS_P1;PMS_P2;Temp;Humidity;BMP_temperature;BMP_pressure;BME280_temperature;BME280_humidity;BME280_pressure;Samples;Min_cycle;Max_cycle;Signal;HPM_P1;HPM_P2
2023/07/23 00:00:47;;;;;;;6.38;5.05;;;;;;;28.68;57.39;100891.09;5072917;28;20534;-58
2023/07/23 00:03:15;;;;;;;8.05;5.18;;;;;;;28.69;57.19;100891.97;5072716;28;20520;-58
2023/07/23 00:05:44;;;;;;;6.97;5.30;;;;;;;28.71;57.23;100895.31;5075003;28;20041;-58
2023/07/23 00:08:13;;;;;;;7.30;5.28;;;;;;;28.70;56.69;100888.19;5072917;28;20041;-54
2023/07/23 00:10:41;;;;;;;8.60;5.68;;;;;;;28.71;56.59;100901.59;5074638;28;20480;-55
2023/07/23 00:13:08;;;;;;;7.35;5.05;;;;;;;28.73;56.70;100904.16;5072284;28;20048;-56
2023/07/23 00:15:36;;;;;;;6.55;5.30;;;;;;;28.73;56.57;100904.16;5072645;28;20040;-55
2023/07/23 00:18:03;;;;;;;7.80;5.85;;;;;;;28.73;56.98;100887.81;5074614;28;20044;-58
2023/07/23 00:20:31;;;;;;;6.22;5.45;;;;;;;28.74;56.65;100889.50;5072409;28;20048;-58
2023/07/23 00:22:58;;;;;;;7.40;5.05;;;;;;;28.75;56.82;100891.16;5071835;28;20053;-58
2023/07/23 00:25:25;;;;;;;7.18;5.22;;;;;;;28.76;56.73;100892.84;5074040;28;20048;-58
2023/07/23 00:27:53;;;;;;;7.25;5.40;;;;;;;28.76;56.67;100876.50;5072855;28;20048;-58
2023/07/23 00:30:20;;;;;;;8.10;5.35;;;;;;;28.76;56.13;100868.31;5074097;28;20055;-58
2023/07/23 00:32:48;;;;;;;7.43;5.35;;;;;;;28.76;56.33;100871.94;5071590;28;20048;-58
2023/07/23 00:35:16;;;;;;;8.20;5.60;;;;;;;28.77;55.98;100875.50;5067515;28;20477;-58
2023/07/23 00:37:43;;;;;;;5.60;5.05;;;;;;;28.76;56.43;100874.66;5054652;28;20068;-55
2023/07/23 00:40:11;;;;;;;6.00;4.60;;;;;;;28.76;56.06;100874.66;5068336;28;20055;-54
2023/07/23 00:42:39;;;;;;;8.23;5.65;;;;;;;28.77;56.11;100881.78;5069661;28;20056;-55
2023/07/23 00:45:06;;;;;;;8.02;5.72;;;;;;;28.77;56.24;100879.06;5072343;28;20048;-55
2023/07/23 00:47:34;;;;;;;6.53;5.57;;;;;;;28.77;56.11;100878.22;5063060;28;20037;-58
2023/07/23 00:50:03;;;;;;;7.55;4.60;;;;;;;28.77;56.22;100886.38;5068425;28;20048;-58
2023/07/23 00:52:30;;;;;;;7.18;5.53;;;;;;;28.77;55.86;100887.22;5071380;28;20044;-58
2023/07/23 00:54:58;;;;;;;6.88;4.97;;;;;;;28.79;56.01;100897.91;5071814;28;20064;-58
2023/07/23 00:57:26;;;;;;;6.07;5.15;;;;;;;28.79;56.13;100889.75;5060687;28;20044;-58
2023/07/23 00:59:56;;;;;;;7.50;5.35;;;;;;;28.79;55.97;100892.47;5053879;28;20052;-58
2023/07/23 01:02:26;;;;;;;7.28;5.40;;;;;;;28.79;55.95;100897.91;5067611;28;20048;-58
2023/07/23 01:04:55;;;;;;;8.02;5.65;;;;;;;28.78;56.04;100885.34;5061293;28;20056;-58
2023/07/23 01:07:24;;;;;;;7.03;5.28;;;;;;;28.78;55.53;100891.63;5073252;28;20040;-58
2023/07/23 01:09:53;;;;;;;6.05;4.95;;;;;;;28.79;55.66;100889.75;5072786;28;20036;-58
2023/07/23 01:12:21;;;;;;;8.63;5.72;;;;;;;28.79;55.87;100881.56;5071664;28;20053;-58
2023/07/23 01:14:48;;;;;;;11.00;5.82;;;;;;;28.79;55.86;100881.56;5072706;28;20059;-58
2023/07/23 01:17:18;;;;;;;6.90;5.13;;;;;;;28.78;55.59;100885.34;5072608;28;20044;-56
2023/07/23 01:19:46;;;;;;;6.68;5.43;;;;;;;28.79;55.37;100884.28;5057214;28;20052;-55
2023/07/23 01:22:13;;;;;;;6.85;5.40;;;;;;;28.79;55.69;100885.13;5067744;28;20052;-55
2023/07/23 01:24:41;;;;;;;6.50;5.25;;;;;;;28.80;55.63;100883.25;5059882;28;20497;-55
2023/07/23 01:27:08;;;;;;;7.28;5.10;;;;;;;28.80;55.57;100880.53;5072429;28;20044;-54
2023/07/23 01:29:36;;;;;;;6.88;5.45;;;;;;;28.80;55.60;100888.69;5071235;28;20048;-53
2023/07/23 01:32:03;;;;;;;6.30;4.63;;;;;;;28.81;55.75;100898.59;5071271;28;20041;-54
2023/07/23 01:34:31;;;;;;;7.90;5.50;;;;;;;28.80;55.83;100886.84;5064257;28;20057;-54
2023/07/23 01:36:59;;;;;;;7.78;5.55;;;;;;;28.80;55.87;100889.56;5054867;28;20041;-55
2023/07/23 01:39:26;;;;;;;6.90;6.03;;;;;;;28.82;55.86;100892.09;5055415;28;20056;-55
2023/07/23 01:41:54;;;;;;;8.00;5.30;;;;;;;28.82;56.00;100900.25;5068330;28;20059;-55
2023/07/23 01:44:21;;;;;;;8.35;5.10;;;;;;;28.82;55.96;100897.53;5072092;28;20427;-54
2023/07/23 01:46:50;;;;;;;7.75;5.53;;;;;;;28.82;55.94;100897.53;5070877;28;20044;-55
2023/07/23 01:49:17;;;;;;;7.38;5.68;;;;;;;28.82;56.20;100892.94;5070909;28;20047;-55
2023/07/23 01:51:45;;;;;;;9.85;5.60;;;;;;;28.83;56.21;100891.03;5067039;28;20055;-62
2023/07/23 01:54:12;;;;;;;7.72;5.75;;;;;;;28.81;56.13;100891.25;5061379;28;20392;-62
2023/07/23 01:56:39;;;;;;;9.02;5.65;;;;;;;28.79;56.27;100890.59;5070923;28;20052;-59
2023/07/23 01:59:08;;;;;;;6.55;5.72;;;;;;;28.78;56.13;100899.81;5056701;28;20053;-59
2023/07/23 02:01:35;;;;;;;7.35;5.45;;;;;;;28.77;55.98;100905.47;5068499;28;20052;-59
2023/07/23 02:04:03;;;;;;;9.30;6.38;;;;;;;28.75;55.97;100905.63;5063396;28;20041;-59
2023/07/23 02:06:30;;;;;;;7.30;5.15;;;;;;;28.74;55.85;100900.38;5066512;28;20045;-59
2023/07/23 02:08:58;;;;;;;8.57;5.75;;;;;;;28.73;55.73;100906.88;5069376;28;20048;-59
2023/07/23 02:11:25;;;;;;;7.38;5.75;;;;;;;28.71;55.22;100908.94;5066863;28;20064;-59
2023/07/23 02:13:53;;;;;;;6.30;5.32;;;;;;;28.70;55.12;100909.97;5060904;28;20059;-59
2023/07/23 02:16:21;;;;;;;8.18;5.85;;;;;;;28.69;55.25;100919.19;5070933;28;20064;-59
2023/07/23 02:18:49;;;;;;;8.02;5.43;;;;;;;28.68;55.08;100920.22;5056167;28;20056;-59
2023/07/23 02:21:17;;;;;;;8.55;5.90;;;;;;;28.68;54.98;100922.94;5066305;28;20048;-59
2023/07/23 02:23:45;;;;;;;6.32;5.28;;;;;;;28.67;55.02;100919.38;5061238;28;20056;-59
2023/07/23 02:26:12;;;;;;;7.30;5.60;;;;;;;28.65;54.81;100918.72;5069102;28;20052;-59
2023/07/23 02:28:42;;;;;;;6.63;5.57;;;;;;;28.66;54.62;100922.28;5063077;28;20041;-62
2023/07/23 02:31:10;;;;;;;7.95;5.88;;;;;;;28.63;54.63;100928.97;5053099;28;20067;-62
2023/07/23 02:33:37;;;;;;;8.65;5.60;;;;;;;28.65;54.43;100931.50;5061485;28;20051;-63
2023/07/23 02:36:05;;;;;;;6.57;5.53;;;;;;;28.64;54.36;100936.09;5070558;28;20377;-62
2023/07/23 02:38:32;;;;;;;8.43;5.40;;;;;;;28.63;54.55;100944.47;5056203;28;20033;-59
2023/07/23 02:41:01;;;;;;;7.53;5.90;;;;;;;28.63;54.51;100947.19;5056844;28;20040;-59
2023/07/23 02:43:29;;;;;;;7.22;5.53;;;;;;;28.62;54.36;100942.78;5062906;28;20052;-59
2023/07/23 02:45:56;;;;;;;7.05;5.57;;;;;;;28.59;54.12;100947.56;5063912;28;20043;-59
2023/07/23 02:48:24;;;;;;;8.32;5.80;;;;;;;28.58;53.42;100950.50;5056492;28;20037;-60
2023/07/23 02:50:52;;;;;;;8.02;5.43;;;;;;;28.56;53.41;100955.28;5057000;28;20516;-59
2023/07/23 02:53:20;;;;;;;7.45;5.70;;;;;;;28.55;53.41;100953.59;5071196;28;20041;-58
2023/07/23 02:55:48;;;;;;;8.27;5.25;;;;;;;28.53;52.77;100948.34;5070115;28;20048;-58
2023/07/23 02:58:15;;;;;;;8.43;5.95;;;;;;;28.53;52.35;100958.41;5056169;28;20049;-61
2023/07/23 03:00:45;;;;;;;6.53;5.03;;;;;;;28.51;52.69;100953.13;5066349;28;20056;-61
2023/07/23 03:03:13;;;;;;;6.72;5.22;;;;;;;28.50;52.46;100954.16;5060482;28;20066;-62
2023/07/23 03:05:45;;;;;;;7.72;5.07;;;;;;;28.51;52.71;100949.56;5070786;28;20055;-61
2023/07/23 03:08:12;;;;;;;7.53;5.53;;;;;;;28.51;52.66;100952.28;5057118;28;20400;-61
2023/07/23 03:10:40;;;;;;;8.88;6.15;;;;;;;28.52;52.40;100952.09;5065268;28;20401;-62
2023/07/23 03:13:09;;;;;;;6.68;5.80;;;;;;;28.51;52.32;100953.13;5060954;28;20049;-62
2023/07/23 03:15:36;;;;;;;6.57;5.22;;;;;;;28.50;51.98;100953.31;5069267;28;20071;-61
2023/07/23 03:18:03;;;;;;;7.40;5.03;;;;;;;28.50;52.39;100954.16;5065787;28;20049;-59
2023/07/23 03:20:31;;;;;;;7.35;5.70;;;;;;;28.49;52.28;100949.75;5067315;28;20056;-58
2023/07/23 03:23:06;;;;;;;6.82;5.07;;;;;;;28.50;52.80;100954.16;5049699;28;20057;-58
2023/07/23 03:25:37;;;;;;;7.30;6.05;;;;;;;28.50;52.54;100962.34;5058704;28;20053;-58
2023/07/23 03:28:05;;;;;;;6.97;5.72;;;;;;;28.51;52.73;100961.28;5068855;28;20045;-62
2023/07/23 03:30:36;;;;;;;7.72;5.47;;;;;;;28.50;52.45;100962.34;5061383;28;20063;-62
2023/07/23 03:33:05;;;;;;;6.35;5.30;;;;;;;28.50;52.73;100965.06;5062091;28;20052;-61
2023/07/23 03:35:35;;;;;;;6.15;5.20;;;;;;;28.50;52.46;100962.34;5069587;28;20484;-62
2023/07/23 03:38:06;;;;;;;6.72;5.57;;;;;;;28.49;52.27;100960.66;5068110;28;20056;-58
2023/07/23 03:40:38;;;;;;;6.60;5.00;;;;;;;28.48;52.24;100967.13;5056128;28;20535;-58
2023/07/23 03:43:06;;;;;;;6.90;5.70;;;;;;;28.49;52.45;100966.09;5056621;28;20504;-58
2023/07/23 03:45:36;;;;;;;6.45;5.07;;;;;;;28.49;52.05;100967.97;5071075;28;20055;-58
2023/07/23 03:48:04;;;;;;;7.50;6.40;;;;;;;28.47;52.28;100968.16;5073121;28;20064;-61
2023/07/23 03:50:33;;;;;;;7.70;5.90;;;;;;;28.46;52.10;100973.78;5064433;28;20053;-62
2023/07/23 03:53:01;;;;;;;6.95;5.32;;;;;;;28.46;52.10;100974.63;5053644;28;20056;-62
2023/07/23 03:55:29;;;;;;;7.00;5.60;;;;;;;28.45;52.25;100963.94;5070621;28;20052;-61
2023/07/23 03:57:56;;;;;;;7.57;5.70;;;;;;;28.46;52.03;100973.78;5061175;28;20036;-59
2023/07/23 04:00:24;;;;;;;7.47;5.35;;;;;;;28.45;51.99;100964.78;5072096;28;20067;-58
2023/07/23 04:02:51;;;;;;;6.85;5.20;;;;;;;28.45;52.01;100967.50;5073438;28;20048;-59
2023/07/23 04:05:18;;;;;;;6.32;4.93;;;;;;;28.44;51.56;100975.84;5057959;28;20064;-58
2023/07/23 04:07:46;;;;;;;7.45;5.43;;;;;;;28.44;51.56;100976.72;5060792;28;20055;-62
2023/07/23 04:10:13;;;;;;;7.18;5.50;;;;;;;28.44;52.05;100970.41;5071594;28;20052;-61
2023/07/23 04:12:40;;;;;;;8.40;5.85;;;;;;;28.45;52.17;100972.94;5060130;28;20417;-61
2023/07/23 04:15:08;;;;;;;6.40;4.93;;;;;;;28.46;52.18;100973.78;5070965;28;20049;-62
2023/07/23 04:17:35;;;;;;;7.93;5.75;;;;;;;28.46;51.82;100981.97;5060548;28;20049;-58
2023/07/23 04:20:03;;;;;;;6.82;5.53;;;;;;;28.46;51.71;100984.69;5073020;28;20384;-58
2023/07/23 04:22:31;;;;;;;6.50;5.30;;;;;;;28.44;51.82;100982.16;5072587;28;20052;-58
2023/07/23 04:24:58;;;;;;;7.43;4.95;;;;;;;28.45;52.11;100983.00;5069440;28;20053;-58
2023/07/23 04:27:26;;;;;;;8.25;5.75;;;;;;;28.45;51.68;100983.84;5060833;28;20403;-61
2023/07/23 04:29:53;;;;;;;6.40;5.07;;;;;;;28.46;52.29;100990.97;5072725;28;20052;-62
2023/07/23 04:32:21;;;;;;;6.65;5.55;;;;;;;28.45;52.15;100983.84;5058021;28;20049;-61
2023/07/23 04:34:48;;;;;;;7.03;5.15;;;;;;;28.45;52.10;100989.28;5070723;28;20400;-62
2023/07/23 04:37:16;;;;;;;7.03;5.32;;;;;;;28.46;52.09;100988.25;5060660;28;20048;-58
2023/07/23 04:39:43;;;;;;;7.32;5.20;;;;;;;28.45;52.02;100989.28;5062713;28;20472;-59
2023/07/23 04:42:12;;;;;;;7.55;5.28;;;;;;;28.47;52.12;100994.53;5057602;28;20047;-58
2023/07/23 04:44:40;;;;;;;6.75;5.80;;;;;;;28.45;52.18;100993.91;5070312;28;20057;-58
2023/07/23 04:47:07;;;;;;;6.82;4.97;;;;;;;28.44;51.77;100989.47;5066640;28;20056;-61
2023/07/23 04:49:34;;;;;;;9.15;6.68;;;;;;;28.44;51.84;100993.06;5072516;28;20407;-62
2023/07/23 04:52:02;;;;;;;6.50;5.43;;;;;;;28.43;51.94;100996.78;5071920;28;20044;-61
2023/07/23 04:54:29;;;;;;;6.85;5.80;;;;;;;28.43;52.30;101006.84;5069978;28;20513;-62
2023/07/23 04:56:57;;;;;;;6.78;5.63;;;;;;;28.42;52.46;100999.72;5065242;28;20045;-58
2023/07/23 04:59:24;;;;;;;7.07;5.78;;;;;;;28.43;52.30;100998.69;5065542;28;20032;-58
2023/07/23 05:01:51;;;;;;;8.30;6.00;;;;;;;28.42;52.26;100997.84;5071785;28;20048;-58
2023/07/23 05:04:19;;;;;;;6.32;5.38;;;;;;;28.43;52.22;101004.13;5069974;28;20051;-58
2023/07/23 05:06:47;;;;;;;8.00;5.68;;;;;;;28.42;52.49;101008.72;5059748;28;20056;-61
2023/07/23 05:09:14;;;;;;;7.00;5.53;;;;;;;28.42;52.08;101011.44;5071764;28;20051;-62
2023/07/23 05:11:42;;;;;;;6.72;5.25;;;;;;;28.44;52.08;101016.69;5071724;28;20397;-62
2023/07/23 05:14:09;;;;;;;9.35;5.72;;;;;;;28.45;52.31;101015.69;5069954;28;20051;-62
2023/07/23 05:16:36;;;;;;;6.93;6.00;;;;;;;28.44;51.89;101014.84;5067292;28;20057;-58
2023/07/23 05:19:04;;;;;;;9.23;5.18;;;;;;;28.43;52.05;101015.00;5071198;28;20049;-58
2023/07/23 05:21:34;;;;;;;7.82;5.93;;;;;;;28.43;52.23;101013.13;5071205;28;20056;-58
2023/07/23 05:24:02;;;;;;;6.53;5.50;;;;;;;28.43;51.85;101024.03;5057961;28;20056;-58
2023/07/23 05:26:29;;;;;;;7.25;5.13;;;;;;;28.43;51.89;101013.13;5059760;28;20056;-61
2023/07/23 05:28:57;;;;;;;8.27;5.55;;;;;;;28.43;52.23;101018.56;5071507;28;20400;-61
2023/07/23 05:31:24;;;;;;;8.48;6.20;;;;;;;28.42;51.88;101018.78;5071309;28;20071;-62
2023/07/23 05:33:51;;;;;;;8.10;6.43;;;;;;;28.41;51.78;101023.38;5069100;28;20057;-63
2023/07/23 05:36:20;;;;;;;9.32;6.55;;;;;;;28.41;51.37;101022.53;5059047;28;20043;-59
2023/07/23 05:38:48;;;;;;;7.05;5.22;;;;;;;28.40;51.87;101021.69;5070963;28;20045;-59
2023/07/23 05:41:15;;;;;;;7.93;5.55;;;;;;;28.41;51.72;101025.25;5057404;28;20515;-59
2023/07/23 05:43:43;;;;;;;8.30;6.10;;;;;;;28.41;51.87;101017.94;5058364;28;20060;-59
2023/07/23 05:46:10;;;;;;;7.55;5.60;;;;;;;28.43;51.88;101034.06;5054870;28;20045;-59
2023/07/23 05:48:37;;;;;;;6.47;5.43;;;;;;;28.42;52.15;101022.34;5062950;28;20045;-61
2023/07/23 05:51:05;;;;;;;6.68;4.80;;;;;;;28.43;52.10;101026.75;5069871;28;20044;-61
2023/07/23 05:53:32;;;;;;;7.65;5.63;;;;;;;28.43;52.36;101031.34;5054973;28;20048;-62
2023/07/23 05:55:59;;;;;;;7.45;5.57;;;;;;;28.44;52.04;101041.19;5059085;28;20044;-62
2023/07/23 05:58:27;;;;;;;6.60;5.10;;;;;;;28.44;52.43;101042.06;5070993;28;20388;-61
2023/07/23 06:00:54;;;;;;;7.20;6.05;;;;;;;28.46;52.10;101044.59;5070397;28;20059;-62
2023/07/23 06:03:22;;;;;;;7.38;5.78;;;;;;;28.46;52.23;101044.59;5068260;28;20059;-61
2023/07/23 06:05:49;;;;;;;8.85;6.00;;;;;;;28.48;52.58;101039.78;5058860;28;20045;-62
2023/07/23 06:08:17;;;;;;;8.70;5.85;;;;;;;28.47;52.67;101040.84;5070234;28;20044;-59
2023/07/23 06:10:44;;;;;;;8.35;6.03;;;;;;;28.46;52.49;101044.59;5070348;28;20397;-59
2023/07/23 06:13:11;;;;;;;8.75;6.25;;;;;;;28.47;52.62;101052.56;5068215;28;20060;-58
2023/07/23 06:15:39;;;;;;;7.78;5.90;;;;;;;28.48;52.80;101051.56;5058766;28;20051;-58
2023/07/23 06:18:06;;;;;;;7.15;5.65;;;;;;;28.48;53.15;101059.75;5070396;28;20044;-59
2023/07/23 06:20:33;;;;;;;7.65;6.07;;;;;;;28.48;52.98;101057.00;5069964;28;20051;-58
2023/07/23 06:23:01;;;;;;;7.10;5.72;;;;;;;28.49;53.50;101061.41;5069510;28;20044;-59
2023/07/23 06:25:28;;;;;;;6.70;5.57;;;;;;;28.50;53.10;101062.25;5069966;28;20041;-58
2023/07/23 06:27:56;;;;;;;7.20;5.25;;;;;;;28.51;53.18;101066.66;5070683;28;20527;-61
2023/07/23 06:30:23;;;;;;;7.90;6.15;;;;;;;28.50;53.50;101064.97;5069915;28;20044;-61
2023/07/23 06:32:50;;;;;;;9.82;6.18;;;;;;;28.50;53.29;101068.56;5068450;28;20048;-62
2023/07/23 06:35:18;;;;;;;7.90;6.10;;;;;;;28.49;53.72;101066.88;5070033;28;20045;-62
2023/07/23 06:37:45;;;;;;;8.43;6.47;;;;;;;28.50;53.44;101074.00;5070140;28;20049;-61
2023/07/23 06:40:12;;;;;;;6.55;5.30;;;;;;;28.48;53.74;101067.91;5070271;28;20041;-62
2023/07/23 06:42:40;;;;;;;7.57;6.70;;;;;;;28.48;53.97;101070.63;5054693;28;20055;-61
2023/07/23 06:45:09;;;;;;;8.02;6.18;;;;;;;28.47;53.75;101060.75;5057172;28;20538;-61
2023/07/23 06:47:38;;;;;;;10.15;6.95;;;;;;;28.47;54.35;101065.34;5060236;28;20049;-61
2023/07/23 06:50:06;;;;;;;7.95;7.03;;;;;;;28.46;54.53;101066.38;5066502;28;20040;-62
2023/07/23 06:52:33;;;;;;;8.35;6.25;;;;;;;28.45;54.74;101071.00;5067315;28;20055;-60
2023/07/23 06:55:01;;;;;;;8.95;7.00;;;;;;;28.44;54.79;101066.59;5070850;28;20044;-62
2023/07/23 06:57:28;;;;;;;7.75;6.30;;;;;;;28.44;55.13;101069.31;5072466;28;20059;-60
2023/07/23 06:59:55;;;;;;;9.48;8.20;;;;;;;28.45;55.18;101067.44;5073131;28;20069;-62
2023/07/23 07:02:22;;;;;;;9.10;7.18;;;;;;;28.43;55.53;101069.47;5070988;28;20049;-62
2023/07/23 07:04:51;;;;;;;10.02;7.30;;;;;;;28.41;55.70;101074.28;5072906;28;20473;-61
2023/07/23 07:07:18;;;;;;;14.15;9.95;;;;;;;28.37;56.65;101087.41;5073569;28;20051;-57
2023/07/23 07:09:46;;;;;;;11.57;9.45;;;;;;;28.30;56.67;101083.72;5072995;28;20070;-57
2023/07/23 07:12:13;;;;;;;10.98;8.98;;;;;;;28.25;56.94;101089.72;5071401;28;20052;-57
2023/07/23 07:14:41;;;;;;;9.73;8.77;;;;;;;28.21;57.14;101095.72;5061614;28;20048;-57
2023/07/23 07:17:08;;;;;;;11.52;8.75;;;;;;;28.20;57.81;101091.31;5073157;28;20045;-57
2023/07/23 07:19:35;;;;;;;13.88;10.15;;;;;;;28.14;58.05;101084.69;5073969;28;20048;-57
2023/07/23 07:22:03;;;;;;;11.52;9.88;;;;;;;28.01;58.32;101090.78;5071524;28;20067;-57
2023/07/23 07:24:30;;;;;;;12.30;10.20;;;;;;;27.93;58.79;101088.13;5072660;28;20052;-57
2023/07/23 07:26:58;;;;;;;13.88;10.57;;;;;;;27.83;59.35;101095.66;5073567;28;20051;-57
2023/07/23 07:29:25;;;;;;;12.48;9.05;;;;;;;27.78;59.97;101100.81;5073214;28;20063;-57
2023/07/23 07:31:53;;;;;;;11.73;10.40;;;;;;;27.75;59.94;101096.59;5072103;28;20507;-57
2023/07/23 07:34:20;;;;;;;12.85;10.27;;;;;;;27.73;60.12;101100.50;5073151;28;20053;-57
2023/07/23 07:36:47;;;;;;;13.52;10.50;;;;;;;27.72;60.35;101096.09;5073423;28;20047;-61
2023/07/23 07:39:15;;;;;;;12.48;9.45;;;;;;;27.72;60.21;101098.81;5073232;28;20504;-61
2023/07/23 07:41:42;;;;;;;11.55;9.95;;;;;;;27.75;60.67;101102.03;5070945;28;20045;-61
2023/07/23 07:44:09;;;;;;;12.13;9.80;;;;;;;27.79;61.03;101094.34;5057624;28;20056;-61
2023/07/23 07:46:37;;;;;;;11.80;9.40;;;;;;;27.79;60.78;101087.06;5064816;28;20060;-60
2023/07/23 07:49:05;;;;;;;13.02;9.30;;;;;;;27.82;61.00;101094.81;5073402;28;20045;-61
2023/07/23 07:51:32;;;;;;;11.93;9.20;;;;;;;27.87;60.37;101093.44;5070629;28;20045;-62
2023/07/23 07:54:00;;;;;;;12.32;9.60;;;;;;;27.91;60.76;101095.59;5069280;28;20052;-60
2023/07/23 07:56:27;;;;;;;12.65;10.25;;;;;;;27.92;60.39;101097.31;5064337;28;20041;-63
2023/07/23 07:58:55;;;;;;;13.65;10.57;;;;;;;27.91;60.53;101090.16;5072905;28;20044;-64
2023/07/23 08:01:23;;;;;;;12.30;10.80;;;;;;;27.90;60.42;101095.81;5070282;28;20041;-63
2023/07/23 08:03:50;;;;;;;11.02;9.82;;;;;;;27.89;60.64;101091.41;5072137;28;20049;-63
2023/07/23 08:06:18;;;;;;;12.70;10.38;;;;;;;27.91;60.68;101098.31;5072669;28;20060;-60
2023/07/23 08:08:50;;;;;;;12.45;9.77;;;;;;;27.89;60.62;101094.97;5071472;28;20071;-59
2023/07/23 08:11:18;;;;;;;12.85;10.63;;;;;;;27.86;60.93;101087.16;5071264;28;20489;-63
2023/07/23 08:13:46;;;;;;;13.07;10.60;;;;;;;27.85;61.06;101085.47;5062196;28;20061;-62
2023/07/23 08:16:17;;;;;;;13.07;10.60;;;;;;;27.83;61.24;101080.22;5071713;28;20508;-63
2023/07/23 08:18:44;;;;;;;10.43;9.15;;;;;;;27.86;61.19;101087.16;5073193;28;20499;-60
2023/07/23 08:21:12;;;;;;;12.35;8.88;;;;;;;27.91;60.90;101087.44;5069214;28;20063;-60
2023/07/23 08:23:40;;;;;;;11.98;9.75;;;;;;;27.96;61.08;101084.19;5071562;28;20044;-60
2023/07/23 08:26:08;;;;;;;12.02;10.13;;;;;;;27.98;61.42;101087.56;5072710;28;20518;-60
2023/07/23 08:28:44;;;;;;;14.30;10.43;;;;;;;28.00;61.48;101088.25;5070216;28;20056;-60
2023/07/23 08:31:12;;;;;;;12.48;10.15;;;;;;;28.00;61.21;101088.25;5058260;28;20049;-60
2023/07/23 08:33:43;;;;;;;12.55;9.93;;;;;;;28.00;61.19;101089.09;5071554;28;20420;-60
2023/07/23 08:36:11;;;;;;;11.88;9.38;;;;;;;28.02;61.06;101084.28;5071553;28;20051;-59
2023/07/23 08:38:38;;;;;;;10.65;9.55;;;;;;;28.07;61.22;101086.47;5069584;28;20519;-59
2023/07/23 08:41:21;;;;;;;11.25;9.18;;;;;;;28.12;61.17;101094.09;5070230;28;20463;-59
2023/07/23 08:44:09;;;;;;;10.68;8.45;;;;;;;28.13;61.42;101084.91;5062061;28;20045;-59
2023/07/23 08:46:46;;;;;;;11.95;9.32;;;;;;;28.15;61.75;101091.00;5059295;28;20041;-59
2023/07/23 08:49:17;;;;;;;9.20;8.20;;;;;;;28.16;61.86;101100.88;5060755;28;20484;-58
2023/07/23 08:51:47;;;;;;;12.88;9.27;;;;;;;28.16;61.45;101093.56;5072280;28;20041;-59
2023/07/23 08:54:16;;;;;;;11.50;9.10;;;;;;;28.18;61.38;101096.91;5068683;28;20048;-59
2023/07/23 08:56:44;;;;;;;9.95;8.23;;;;;;;28.19;61.47;101097.75;5070323;28;20049;-61
2023/07/23 08:59:12;;;;;;;10.80;9.52;;;;;;;28.20;61.30;101094.88;5070364;28;20040;-60
2023/07/23 09:01:41;;;;;;;10.05;8.27;;;;;;;28.21;61.58;101093.84;5071628;28;20044;-64
2023/07/23 09:04:13;;;;;;;10.10;8.80;;;;;;;28.23;61.25;101089.03;5069762;28;20408;-65
2023/07/23 09:06:43;;;;;;;9.57;7.38;;;;;;;28.26;60.89;101094.13;5070164;28;20053;-61
2023/07/23 09:09:13;;;;;;;9.05;7.25;;;;;;;28.30;60.82;101084.53;5070459;28;20040;-60
2023/07/23 09:11:41;;;;;;;9.68;7.68;;;;;;;28.34;61.13;101093.19;5072048;28;20406;-62
2023/07/23 09:14:11;;;;;;;9.52;7.82;;;;;;;28.34;61.01;101095.91;5067902;28;20053;-60
2023/07/23 09:16:47;;;;;;;9.43;7.65;;;;;;;28.35;60.89;101097.59;5071883;28;20403;-59
2023/07/23 09:19:24;;;;;;;10.43;7.20;;;;;;;28.37;61.24;101092.88;5070166;28;20115;-59
2023/07/23 09:21:57;;;;;;;8.00;6.82;;;;;;;28.41;61.13;101090.63;5070522;28;20055;-64
2023/07/23 09:24:34;;;;;;;9.82;8.38;;;;;;;28.43;60.93;101094.00;5070203;28;20055;-64
2023/07/23 09:27:02;;;;;;;9.48;8.13;;;;;;;28.42;61.39;101095.03;5069837;28;20048;-61
2023/07/23 09:29:35;;;;;;;10.07;7.07;;;;;;;28.40;61.16;101100.66;5071719;28;20048;-61
2023/07/23 09:32:03;;;;;;;9.13;7.10;;;;;;;28.38;60.85;101090.97;5056018;28;20044;-61
2023/07/23 09:34:32;;;;;;;10.05;8.00;;;;;;;28.36;60.69;101083.00;5071223;28;20056;-61
2023/07/23 09:37:00;;;;;;;12.43;7.40;;;;;;;28.34;60.46;101085.03;5070044;28;20044;-62
2023/07/23 09:39:31;;;;;;;10.15;6.97;;;;;;;28.35;60.44;101075.81;5071170;28;20052;-62
2023/07/23 09:42:03;;;;;;;10.13;7.78;;;;;;;28.35;60.85;101078.53;5068557;28;20040;-62
2023/07/23 09:44:30;;;;;;;10.60;7.90;;;;;;;28.34;60.82;101079.59;5063757;28;20041;-62
2023/07/23 09:46:59;;;;;;;9.15;6.95;;;;;;;28.32;60.37;101081.66;5055532;28;20535;-61
2023/07/23 09:49:32;;;;;;;8.85;6.85;;;;;;;28.33;60.51;101072.44;5067179;28;20056;-62
2023/07/23 09:52:08;;;;;;;10.32;7.45;;;;;;;28.33;60.28;101078.75;5069578;28;20041;-62
2023/07/23 09:54:36;;;;;;;7.90;6.40;;;;;;;28.33;60.02;101077.91;5068291;28;20067;-60
2023/07/23 09:57:04;;;;;;;8.00;6.35;;;;;;;28.34;59.30;101074.13;5065677;28;20053;-61
2023/07/23 09:59:32;;;;;;;8.25;6.47;;;;;;;28.34;59.42;101068.69;5069027;28;20064;-60
2023/07/23 10:02:00;;;;;;;9.30;6.30;;;;;;;28.34;58.54;101071.41;5059239;28;20036;-60
2023/07/23 10:04:30;;;;;;;7.03;5.82;;;;;;;28.34;57.99;101071.41;5069050;28;20504;-61
2023/07/23 10:06:58;;;;;;;8.40;6.13;;;;;;;28.33;57.70;101072.44;5067459;28;20055;-59
2023/07/23 10:09:26;;;;;;;8.43;6.13;;;;;;;28.33;56.77;101067.84;5062115;28;20052;-62
2023/07/23 10:11:53;;;;;;;7.00;6.25;;;;;;;28.33;56.17;101073.28;5059344;28;20412;-61
2023/07/23 10:14:21;;;;;;;9.05;5.95;;;;;;;28.34;56.39;101066.81;5069014;28;20041;-62
2023/07/23 10:16:52;;;;;;;9.18;5.82;;;;;;;28.36;55.26;101069.41;5069049;28;20115;-61
2023/07/23 10:19:20;;;;;;;8.60;6.35;;;;;;;28.36;54.44;101063.94;5065564;28;20048;-61
2023/07/23 10:21:51;;;;;;;10.20;5.90;;;;;;;28.37;53.89;101064.78;5059755;28;20392;-61
2023/07/23 10:24:18;;;;;;;9.02;5.53;;;;;;;28.37;53.15;101057.47;5069282;28;20053;-61
2023/07/23 10:26:47;;;;;;;8.60;5.85;;;;;;;28.38;53.10;101053.69;5067936;28;20049;-59
2023/07/23 10:29:21;;;;;;;8.85;5.95;;;;;;;28.39;52.89;101058.09;5066971;28;20049;-57
2023/07/23 10:31:49;;;;;;;8.65;6.13;;;;;;;28.41;52.89;101058.78;5066641;28;20040;-58
2023/07/23 10:34:22;;;;;;;8.80;6.80;;;;;;;28.43;53.44;101055.88;5058515;28;20060;-59
2023/07/23 10:37:09;;;;;;;7.60;5.80;;;;;;;28.45;53.59;101051.09;5073080;28;20582;-56
2023/07/23 10:39:40;;;;;;;9.02;6.07;;;;;;;28.45;53.74;101051.94;5058563;28;20116;-58
2023/07/23 10:42:07;;;;;;;7.97;5.90;;;;;;;28.46;54.10;101044.59;5069280;28;20040;-59
2023/07/23 10:44:38;;;;;;;8.48;6.20;;;;;;;28.49;54.71;101050.53;5072942;28;20063;-57
2023/07/23 10:47:55;;;;;;;8.43;6.55;;;;;;;28.50;54.83;101035.88;5059433;28;20465;-58
2023/07/23 10:50:27;;;;;;;8.73;6.68;;;;;;;28.52;53.93;101038.38;5051934;28;20045;-60
2023/07/23 10:53:05;;;;;;;7.85;6.60;;;;;;;28.52;53.52;101032.94;5040085;28;20064;-60
2023/07/23 10:55:47;;;;;;;9.43;7.30;;;;;;;28.56;53.26;101043.31;5044403;28;20053;-58
2023/07/23 10:58:19;;;;;;;8.82;7.20;;;;;;;28.57;52.72;101035.97;5047359;28;20057;-59
2023/07/23 11:00:54;;;;;;;9.75;6.88;;;;;;;28.57;52.45;101033.25;5039186;28;20064;-59
2023/07/23 11:03:23;;;;;;;11.52;7.68;;;;;;;28.58;53.06;101026.75;5051793;28;20059;-59
2023/07/23 11:05:52;;;;;;;9.82;7.80;;;;;;;28.61;52.79;101031.00;5051360;28;20156;-59
2023/07/23 11:08:26;;;;;;;10.48;7.85;;;;;;;28.62;52.81;101022.63;5039638;28;20057;-59
2023/07/23 11:11:02;;;;;;;10.32;7.15;;;;;;;28.63;52.94;101024.31;5044201;28;20071;-59
2023/07/23 11:13:34;;;;;;;8.98;6.50;;;;;;;28.65;53.62;101026.84;5049378;28;20049;-59
2023/07/23 11:16:02;;;;;;;9.75;7.68;;;;;;;28.68;53.61;101015.56;5031606;28;20050;-59
2023/07/23 11:18:33;;;;;;;9.70;6.63;;;;;;;28.68;53.62;101018.28;5045463;28;20048;-59
2023/07/23 11:21:05;;;;;;;8.88;6.63;;;;;;;28.70;54.68;101018.97;5060094;28;20064;-59
2023/07/23 11:23:33;;;;;;;7.90;6.35;;;;;;;28.70;55.15;101016.22;5067246;28;20045;-59
2023/07/23 11:26:00;;;;;;;9.93;7.03;;;;;;;28.71;55.20;101005.13;5071796;28;20044;-60
2023/07/23 11:28:28;;;;;;;10.25;6.82;;;;;;;28.72;55.28;101009.53;5073638;28;20404;-59